UHSSUHHH

Guest
Details From UHSS - Khomutovo
To UHHH - Novy
Flight Number -
Tags Generated
Created
Modified
Stats Distance 321 nm / 594 km
Max Altitude 0 ft / 0 m
Waypoints 3
Social Downloads 4
Likes 0
Share VATSIM

Download

Looking for another format? Having issues loading an existing format? Contact us
Advertisement - Login to hide

Notes

Generated

Route

UHSS UHHH UHHH

ID Type Via Altitude Latitude Longitude Leg Dist Tot Dist Heading (true) Name
O UHSS APT - 0 ft / 0 m 46.87036˚ 142.71727˚ - 0 nm - -
UHHH FIX - 0 ft / 0 m 48.52667˚ 135.18667˚ 320 nm 320 nm 291° / 285° -
O UHHH APT - 0 ft / 0 m 48.51643˚ 135.16989˚ 0 nm 320 nm 227° / 227° -

Altitude Profile

Advertisement - Login to hide

Weather


0- 5 10 15 20 25 30 35+ Temperature / ° C

Clouds and Precipitation
Forecast for 2018-05-27 12:00 UTC. Updated an hour ago

Ground ~20,000 ft ~40,000 ft Winds

UHSS

Details ICAO UHSS (UUS)
Name KHOMUTOVO
Region Russia
Timezone Asia/Sakhalin (UTC+11.0)
Stats Elevation 59 ft / 18 m (AMSL)
Location 46.885582° 142.717529°
Runways 1
Magnetic Variation 10.397° W

METAR

UHSS 271000Z 26002MPS 9999 NSC 12/05 Q1009 R19/CLRD70 NOSIG RMK QFE756/1008

Decode

TAF

TAF UHSS 270800Z 2709/2815 26003MPS 9999 NSC= TAF ULLI 270757Z 2709/2809 34005MPS 9999 SCT020 TEMPO 2712/2722 04003MPS BECMG 2722/2800 10003MPS BECMG 2808/2809 23003MPS

Decode

Departure Runways

ID Width Length Bearing (true) Bearing (mag) Surface Threshold Offset Overrun Length
01 148 ft / 45 m 11,109 ft / 3,386 m 0.66° 11.06° Concrete 0 ft / 0 m 255 ft / 78 m
19 148 ft / 45 m 11,109 ft / 3,386 m 180.66° 191.06° Concrete 0 ft / 0 m 265 ft / 81 m

UHHH

Details ICAO UHHH (KHV)
Name NOVY
Region Russia
Timezone Asia/Vladivostok (UTC+10.0)
Stats Elevation 244 ft / 74 m (AMSL)
Location 48.528043° 135.188359°
Runways 2
Magnetic Variation 11.932° W

METAR

UHHH 271000Z 21002MPS CAVOK 19/05 Q1007 R23L/090060 NOSIG RMK QFE749/0999

Decode

TAF

TAF UHHH 270740Z 2709/2815 24003MPS 9999 SCT030 FM280000 25007MPS CAVOK

Decode

Destination Runways

ID Width Length Bearing (true) Bearing (mag) Surface Threshold Offset Overrun Length
05L 148 ft / 45 m 11,458 ft / 3,492 m 42.08° 54.01° Asphalt 0 ft / 0 m 247 ft / 75 m
05R 197 ft / 60 m 13,105 ft / 3,995 m 42.10° 54.03° Concrete 0 ft / 0 m 246 ft / 75 m
23L 197 ft / 60 m 13,105 ft / 3,995 m 222.13° 234.06° Concrete 0 ft / 0 m 247 ft / 75 m
23R 148 ft / 45 m 11,458 ft / 3,492 m 222.10° 234.03° Asphalt 0 ft / 0 m 175 ft / 53 m

Approach Navaids

Runway Type Ident Frequency Range Bearing (true) Bearing (mag) Slope Elevation
05R Localiser IUF 110.30 MHz 18 nm / 33 km 41.57° 53.50° - 244 ft / 74 m (AMSL)
05R Glidescope IUF 110.30 MHz 10 nm / 19 km 42.11° 54.04° 2.70° 244 ft / 74 m (AMSL)
23L Localiser IHI 110.90 MHz 18 nm / 33 km 221.90° 233.83° - 244 ft / 74 m (AMSL)
23L Glidescope IHI 110.90 MHz 10 nm / 19 km 222.11° 234.04° 2.70° 244 ft / 74 m (AMSL)

Popular Alternatives